createdAt,value
2022-10-26T00:01:17.403Z,2.03
2022-10-26T00:03:47.481Z,1.20
2022-10-26T00:06:20.437Z,1.92
2022-10-26T00:08:49.981Z,2.13
2022-10-26T00:11:17.415Z,1.98
2022-10-26T00:13:44.532Z,1.92
2022-10-26T00:16:15.112Z,2.55
2022-10-26T00:18:47.456Z,2.30
2022-10-26T00:23:43.521Z,2.22
2022-10-26T00:26:12.824Z,2.35
2022-10-26T00:28:41.899Z,2.08
2022-10-26T00:31:15.623Z,1.80
2022-10-26T00:33:44.799Z,1.85
2022-10-26T00:36:13.887Z,1.70
2022-10-26T00:38:45.969Z,2.03
2022-10-26T00:41:19.998Z,2.20
2022-10-26T00:43:47.203Z,1.95
2022-10-26T00:46:21.123Z,1.95
2022-10-26T00:49:05.237Z,2.35
2022-10-26T00:51:34.629Z,2.50
2022-10-26T00:56:31.673Z,2.03
2022-10-26T00:59:02.246Z,1.98
2022-10-26T01:01:29.947Z,2.42
2022-10-26T01:04:01.387Z,3.35
2022-10-26T01:06:29.654Z,2.75
2022-10-26T01:08:56.713Z,3.28
2022-10-26T01:11:23.663Z,3.25
2022-10-26T01:13:54.627Z,3.30
2022-10-26T01:16:43.097Z,3.00
2022-10-26T01:19:30.849Z,3.53
2022-10-26T01:22:14.317Z,3.65
2022-10-26T01:25:13.230Z,3.38
2022-10-26T01:27:55.285Z,3.63
2022-10-26T01:30:28.194Z,3.28
2022-10-26T01:33:22.536Z,3.25
2022-10-26T01:36:15.524Z,2.95
2022-10-26T01:38:48.281Z,2.80
2022-10-26T01:41:49.250Z,2.70
2022-10-26T01:44:23.577Z,3.10
2022-10-26T01:46:52.404Z,3.90
2022-10-26T01:49:24.837Z,2.97
2022-10-26T01:51:51.527Z,3.17
2022-10-26T01:54:18.209Z,3.50
2022-10-26T01:56:52.281Z,3.15
2022-10-26T01:59:59.658Z,3.75
2022-10-26T02:02:29.360Z,3.40
2022-10-26T02:05:21.049Z,3.00
2022-10-26T02:08:05.386Z,3.25
2022-10-26T02:10:59.164Z,3.25
2022-10-26T02:13:52.329Z,2.92
2022-10-26T02:16:28.362Z,2.85
2022-10-26T02:19:06.429Z,3.53
2022-10-26T02:21:45.985Z,3.38
2022-10-26T02:24:16.329Z,3.13
2022-10-26T02:26:46.242Z,3.50
2022-10-26T02:29:20.091Z,2.95
2022-10-26T02:31:48.308Z,3.08
2022-10-26T02:34:19.101Z,3.03
2022-10-26T02:36:47.800Z,3.13
2022-10-26T02:39:17.806Z,2.85
2022-10-26T02:41:45.095Z,3.50
2022-10-26T02:44:22.920Z,2.70
2022-10-26T02:46:50.337Z,3.05
2022-10-26T02:49:19.718Z,3.38
2022-10-26T02:51:50.786Z,3.00
2022-10-26T02:54:42.064Z,2.50
2022-10-26T02:57:23.804Z,2.83
2022-10-26T02:59:51.170Z,2.78
2022-10-26T03:02:19.593Z,2.92
2022-10-26T03:04:46.466Z,2.83
2022-10-26T03:07:13.204Z,3.17
2022-10-26T03:09:42.372Z,2.70
2022-10-26T03:12:11.382Z,3.17
2022-10-26T03:14:38.115Z,3.80
2022-10-26T03:17:09.826Z,3.22
2022-10-26T03:19:36.535Z,2.92
2022-10-26T03:22:05.603Z,3.40
2022-10-26T03:24:34.694Z,2.92
2022-10-26T03:27:06.708Z,3.10
2022-10-26T03:29:36.059Z,3.25
2022-10-26T03:34:31.692Z,3.03
2022-10-26T03:36:58.585Z,2.78
2022-10-26T03:39:25.315Z,3.38
2022-10-26T03:41:55.519Z,2.83
2022-10-26T03:44:22.860Z,3.55
2022-10-26T03:46:49.657Z,3.45
2022-10-26T03:49:16.356Z,3.65
2022-10-26T03:51:42.992Z,3.38
2022-10-26T03:54:11.999Z,3.33
2022-10-26T03:56:38.692Z,3.65
2022-10-26T03:59:07.884Z,3.00
2022-10-26T04:01:34.590Z,4.47
2022-10-26T04:04:01.396Z,3.53
2022-10-26T04:06:28.145Z,3.67
2022-10-26T04:08:59.193Z,3.80
2022-10-26T04:11:31.504Z,4.25
2022-10-26T04:14:00.717Z,5.03
2022-10-26T04:16:31.069Z,4.03
2022-10-26T04:19:02.558Z,5.82
2022-10-26T04:21:33.172Z,4.43
2022-10-26T04:23:59.911Z,3.92
2022-10-26T04:26:29.154Z,4.05
2022-10-26T04:28:55.933Z,4.05
2022-10-26T04:31:24.982Z,3.97
2022-10-26T04:33:51.665Z,4.40
2022-10-26T04:36:18.371Z,4.78
2022-10-26T04:38:49.153Z,4.80
2022-10-26T04:41:16.178Z,5.38
2022-10-26T04:43:43.021Z,4.60
2022-10-26T04:46:16.743Z,4.95
2022-10-26T04:48:43.844Z,3.78
2022-10-26T04:51:10.542Z,3.80
2022-10-26T04:53:37.236Z,3.95
2022-10-26T04:56:09.437Z,4.30
2022-10-26T04:58:36.176Z,3.78
2022-10-26T05:01:03.332Z,4.20
2022-10-26T05:03:30.310Z,3.97
2022-10-26T05:06:00.349Z,4.00
2022-10-26T05:08:32.247Z,4.20
2022-10-26T05:11:01.236Z,3.40
2022-10-26T05:13:30.364Z,3.58
2022-10-26T05:15:59.752Z,3.17
2022-10-26T05:20:53.768Z,3.47
2022-10-26T05:23:24.277Z,3.38
2022-10-26T05:25:55.756Z,3.45
2022-10-26T05:28:27.202Z,3.97
2022-10-26T05:30:53.943Z,4.03
2022-10-26T05:33:20.618Z,4.32
2022-10-26T05:35:47.709Z,4.38
2022-10-26T05:38:16.606Z,5.25
2022-10-26T05:40:51.151Z,5.93
2022-10-26T05:43:24.210Z,5.10
2022-10-26T05:45:51.557Z,6.35
2022-10-26T05:48:18.254Z,7.50
2022-10-26T05:50:49.428Z,7.82
2022-10-26T05:53:16.136Z,7.68
2022-10-26T05:55:43.481Z,7.57
2022-10-26T05:58:15.129Z,7.82
2022-10-26T06:00:49.755Z,8.52
2022-10-26T06:03:50.873Z,9.68
2022-10-26T06:06:17.988Z,11.48
2022-10-26T06:08:44.939Z,11.02
2022-10-26T06:11:16.404Z,9.60
2022-10-26T06:16:21.193Z,9.50
2022-10-26T06:19:11.077Z,9.48
2022-10-26T06:22:16.579Z,10.23
2022-10-26T06:24:43.273Z,10.00
2022-10-26T06:27:40.322Z,10.27
2022-10-26T06:30:12.233Z,11.43
2022-10-26T06:32:40.377Z,12.18
2022-10-26T06:35:30.640Z,12.10
2022-10-26T06:37:59.775Z,10.93
2022-10-26T06:40:26.835Z,12.90
2022-10-26T06:42:56.116Z,11.45
2022-10-26T06:45:23.069Z,12.45
2022-10-26T06:48:08.542Z,13.23
2022-10-26T06:50:42.471Z,12.93
2022-10-26T06:53:19.029Z,15.40
2022-10-26T06:55:47.811Z,11.85
2022-10-26T06:58:23.111Z,12.25
2022-10-26T07:00:51.589Z,12.25
2022-10-26T07:03:20.455Z,10.80
2022-10-26T07:05:47.356Z,11.30
2022-10-26T07:08:14.137Z,11.20
2022-10-26T07:10:43.759Z,11.45
2022-10-26T07:13:10.952Z,10.52
2022-10-26T07:15:38.655Z,10.70
2022-10-26T07:18:06.612Z,11.52
2022-10-26T07:20:38.837Z,10.63
2022-10-26T07:23:11.007Z,10.90
2022-10-26T07:25:42.809Z,11.15
2022-10-26T07:28:13.041Z,11.32
2022-10-26T07:30:40.509Z,12.20
2022-10-26T07:33:12.771Z,11.23
2022-10-26T07:35:39.723Z,11.57
2022-10-26T07:38:09.672Z,10.82
2022-10-26T07:40:38.092Z,12.02
2022-10-26T07:43:05.274Z,11.03
2022-10-26T07:45:32.005Z,11.32
2022-10-26T07:48:03.951Z,12.30
2022-10-26T07:50:30.703Z,11.52
2022-10-26T07:52:59.031Z,11.32
2022-10-26T07:55:28.333Z,12.02
2022-10-26T07:57:58.113Z,11.75
2022-10-26T08:00:30.018Z,12.75
2022-10-26T08:02:57.120Z,12.85
2022-10-26T08:05:23.881Z,12.43
2022-10-26T08:07:50.824Z,12.02
2022-10-26T08:10:20.086Z,12.25
2022-10-26T08:12:55.420Z,11.95
2022-10-26T08:15:22.210Z,12.48
2022-10-26T08:17:49.299Z,11.30
2022-10-26T08:20:16.353Z,13.88
2022-10-26T08:22:43.056Z,12.57
2022-10-26T08:25:13.167Z,10.20
2022-10-26T08:27:41.114Z,11.73
2022-10-26T08:30:13.118Z,10.80
2022-10-26T08:32:48.143Z,8.90
2022-10-26T08:35:15.139Z,8.95
2022-10-26T08:37:50.397Z,9.32
2022-10-26T08:40:25.306Z,9.98
2022-10-26T08:42:58.620Z,8.88
2022-10-26T08:45:36.604Z,9.02
2022-10-26T08:48:06.957Z,9.65
2022-10-26T08:50:40.599Z,10.48
2022-10-26T08:53:15.620Z,10.57
2022-10-26T08:55:45.875Z,9.40
2022-10-26T08:58:17.426Z,9.60
2022-10-26T09:00:47.426Z,9.07
2022-10-26T09:03:17.948Z,10.43
2022-10-26T09:05:55.899Z,9.93
2022-10-26T09:08:40.663Z,9.23
2022-10-26T09:11:33.704Z,9.18
2022-10-26T09:14:11.912Z,9.10
2022-10-26T09:16:47.645Z,8.98
2022-10-26T09:19:32.524Z,10.48
2022-10-26T09:22:22.480Z,8.65
2022-10-26T09:25:05.474Z,9.70
2022-10-26T09:27:42.656Z,10.48
2022-10-26T09:30:19.131Z,11.45
2022-10-26T09:32:53.583Z,10.55
2022-10-26T09:35:26.121Z,10.43
2022-10-26T09:38:01.739Z,9.70
2022-10-26T09:40:36.478Z,10.95
2022-10-26T09:43:18.455Z,9.98
2022-10-26T09:45:47.872Z,10.82
2022-10-26T09:48:32.221Z,9.10
2022-10-26T09:51:04.477Z,8.43
2022-10-26T09:53:36.351Z,8.05
2022-10-26T09:56:08.996Z,7.53
2022-10-26T09:59:02.163Z,7.93
2022-10-26T10:01:36.769Z,8.23
2022-10-26T10:04:26.143Z,7.72
2022-10-26T10:07:16.784Z,8.50
2022-10-26T10:09:45.773Z,7.63
2022-10-26T10:12:23.037Z,7.32
2022-10-26T10:14:57.967Z,7.90
2022-10-26T10:17:27.597Z,6.85
2022-10-26T10:20:12.615Z,6.63
2022-10-26T10:22:53.304Z,6.40
2022-10-26T10:27:54.788Z,6.00
2022-10-26T10:30:27.786Z,6.55
2022-10-26T10:33:11.135Z,6.80
2022-10-26T10:35:51.161Z,6.55
2022-10-26T10:38:20.706Z,7.18
2022-10-26T10:40:52.519Z,7.95
2022-10-26T10:43:22.618Z,8.20
2022-10-26T10:45:57.165Z,9.50
2022-10-26T10:48:28.614Z,9.13
2022-10-26T10:51:04.344Z,9.40
2022-10-26T10:53:37.995Z,10.90
2022-10-26T10:56:29.084Z,9.68
2022-10-26T10:59:01.693Z,10.57
2022-10-26T11:01:36.760Z,10.20
2022-10-26T11:04:45.096Z,11.27
2022-10-26T11:07:15.723Z,11.18
2022-10-26T11:09:46.195Z,11.95
2022-10-26T11:12:18.563Z,11.40
2022-10-26T11:14:52.719Z,12.80
2022-10-26T11:17:24.937Z,12.48
2022-10-26T11:19:56.800Z,12.40
2022-10-26T11:22:35.362Z,12.32
2022-10-26T11:25:29.973Z,12.88
2022-10-26T11:28:05.062Z,12.50
2022-10-26T11:30:34.103Z,12.77
2022-10-26T11:33:02.070Z,11.75
2022-10-26T11:35:44.074Z,12.07
2022-10-26T11:38:27.995Z,11.82
2022-10-26T11:41:20.204Z,12.52
2022-10-26T11:43:53.952Z,13.63
2022-10-26T11:46:28.720Z,13.68
2022-10-26T11:49:16.692Z,11.88
2022-10-26T11:51:49.101Z,12.98
2022-10-26T11:54:32.047Z,12.40
2022-10-26T11:57:01.987Z,13.65
2022-10-26T11:59:33.324Z,13.43
2022-10-26T12:02:08.266Z,12.93
2022-10-26T12:04:41.733Z,12.48
2022-10-26T12:07:16.119Z,13.35
2022-10-26T12:09:47.329Z,12.65
2022-10-26T12:12:42.824Z,14.27
2022-10-26T12:15:40.053Z,13.88
2022-10-26T12:18:43.047Z,14.82
2022-10-26T12:24:01.729Z,14.32
2022-10-26T12:26:34.000Z,15.80
2022-10-26T12:29:03.933Z,13.63
2022-10-26T12:31:36.591Z,13.13
2022-10-26T12:34:13.299Z,14.23
2022-10-26T12:36:49.107Z,15.50
2022-10-26T12:39:35.022Z,14.20
2022-10-26T12:42:04.911Z,14.20
2022-10-26T12:44:33.602Z,13.95
2022-10-26T12:47:01.107Z,13.85
2022-10-26T12:50:01.185Z,13.98
2022-10-26T12:52:34.452Z,13.25
2022-10-26T12:55:15.467Z,13.68
2022-10-26T12:57:59.602Z,13.80
2022-10-26T13:00:29.349Z,14.07
2022-10-26T13:03:14.809Z,13.38
2022-10-26T13:06:02.861Z,15.18
2022-10-26T13:08:48.787Z,15.40
2022-10-26T13:11:38.284Z,14.30
2022-10-26T13:14:06.940Z,14.70
2022-10-26T13:16:36.435Z,14.90
2022-10-26T13:19:05.795Z,15.23
2022-10-26T13:21:46.028Z,14.00
2022-10-26T13:24:14.019Z,13.73
2022-10-26T13:27:05.786Z,13.32
2022-10-26T13:29:33.226Z,13.35
2022-10-26T13:32:00.154Z,12.75
2022-10-26T13:34:32.010Z,14.20
2022-10-26T13:37:24.024Z,14.50
2022-10-26T13:39:55.961Z,14.50
2022-10-26T13:45:31.981Z,14.07
2022-10-26T13:48:06.354Z,15.18
2022-10-26T13:50:52.368Z,16.35
2022-10-26T13:53:45.198Z,15.38
2022-10-26T13:56:38.312Z,14.88
2022-10-26T13:59:05.948Z,12.68
2022-10-26T14:01:35.563Z,13.60
2022-10-26T14:04:18.681Z,15.43
2022-10-26T14:06:51.480Z,14.45
2022-10-26T14:09:23.136Z,14.82
2022-10-26T14:11:51.114Z,15.57
2022-10-26T14:14:22.844Z,14.75
2022-10-26T14:16:56.243Z,14.73
2022-10-26T14:19:41.294Z,14.35
2022-10-26T14:22:08.270Z,14.68
2022-10-26T14:24:47.232Z,13.90
2022-10-26T14:27:18.978Z,14.93
2022-10-26T14:29:49.955Z,15.32
2022-10-26T14:32:32.191Z,14.68
2022-10-26T14:35:01.042Z,13.93
2022-10-26T14:38:06.727Z,15.38
2022-10-26T14:40:38.165Z,16.60
2022-10-26T14:43:05.560Z,14.75
2022-10-26T14:45:48.584Z,15.18
2022-10-26T14:48:36.375Z,14.02
2022-10-26T14:51:14.816Z,16.42
2022-10-26T14:53:49.257Z,16.40
2022-10-26T14:56:33.024Z,13.98
2022-10-26T14:59:10.027Z,14.20
2022-10-26T15:02:00.011Z,12.05
2022-10-26T15:04:34.070Z,10.43
2022-10-26T15:07:23.278Z,9.52
2022-10-26T15:09:51.546Z,9.23
2022-10-26T15:12:19.779Z,8.67
2022-10-26T15:14:49.720Z,8.67
2022-10-26T15:17:27.783Z,9.48
2022-10-26T15:19:57.938Z,7.90
2022-10-26T15:22:31.828Z,7.90
2022-10-26T15:25:04.336Z,8.85
2022-10-26T15:27:33.305Z,8.27
2022-10-26T15:30:22.765Z,7.85
2022-10-26T15:32:49.753Z,9.05
2022-10-26T15:35:19.683Z,13.40
2022-10-26T15:37:47.109Z,11.95
2022-10-26T15:40:14.644Z,9.05
2022-10-26T15:42:42.838Z,9.70
2022-10-26T15:45:26.137Z,9.02
2022-10-26T15:47:53.829Z,9.50
2022-10-26T15:50:23.391Z,8.75
2022-10-26T15:52:56.504Z,8.02
2022-10-26T15:55:23.241Z,7.25
2022-10-26T15:57:53.365Z,9.07
2022-10-26T16:00:22.528Z,8.93
2022-10-26T16:02:51.488Z,9.82
2022-10-26T16:05:18.384Z,9.52
2022-10-26T16:07:49.559Z,9.27
2022-10-26T16:10:26.896Z,8.35
2022-10-26T16:12:55.990Z,8.32
2022-10-26T16:15:25.719Z,9.90
2022-10-26T16:17:55.027Z,10.80
2022-10-26T16:20:23.931Z,9.82
2022-10-26T16:22:52.861Z,11.20
2022-10-26T16:25:25.188Z,10.07
2022-10-26T16:27:53.233Z,10.55
2022-10-26T16:30:25.833Z,11.32
2022-10-26T16:32:57.328Z,10.68
2022-10-26T16:35:26.561Z,13.00
2022-10-26T16:37:53.446Z,13.77
2022-10-26T16:40:20.188Z,13.27
2022-10-26T16:42:49.435Z,12.75
2022-10-26T16:45:18.695Z,13.63
2022-10-26T16:47:48.685Z,13.25
2022-10-26T16:50:21.450Z,14.13
2022-10-26T16:52:56.689Z,13.52
2022-10-26T16:55:30.779Z,14.23
2022-10-26T16:58:00.139Z,13.65
2022-10-26T17:00:29.434Z,12.98
2022-10-26T17:02:56.278Z,15.40
2022-10-26T17:05:26.404Z,13.52
2022-10-26T17:07:53.636Z,13.45
2022-10-26T17:10:20.729Z,11.85
2022-10-26T17:12:47.729Z,12.88
2022-10-26T17:15:17.412Z,13.85
2022-10-26T17:17:46.702Z,13.07
2022-10-26T17:20:14.867Z,13.75
2022-10-26T17:22:46.431Z,13.55
2022-10-26T17:27:49.753Z,12.00
2022-10-26T17:30:16.655Z,12.48
2022-10-26T17:32:45.867Z,12.85
2022-10-26T17:35:13.446Z,12.18
2022-10-26T17:37:41.099Z,13.10
2022-10-26T17:40:08.448Z,12.15
2022-10-26T17:42:35.204Z,13.60
2022-10-26T17:45:02.065Z,13.55
2022-10-26T17:47:28.830Z,12.85
2022-10-26T17:49:55.523Z,12.75
2022-10-26T17:52:24.883Z,12.43
2022-10-26T17:54:56.272Z,12.43
2022-10-26T17:57:29.036Z,12.98
2022-10-26T17:59:58.249Z,12.52
2022-10-26T18:04:54.071Z,11.57
2022-10-26T18:09:47.600Z,8.55
2022-10-26T18:12:17.150Z,7.85
2022-10-26T18:14:44.137Z,6.28
2022-10-26T18:17:10.973Z,6.53
2022-10-26T18:22:06.652Z,7.30
2022-10-26T18:24:36.754Z,8.35
2022-10-26T18:27:09.524Z,7.30
2022-10-26T18:29:39.820Z,6.65
2022-10-26T18:32:07.134Z,6.47
2022-10-26T18:34:36.185Z,7.53
2022-10-26T18:37:07.246Z,8.32
2022-10-26T18:39:34.124Z,8.98
2022-10-26T18:42:05.736Z,7.22
2022-10-26T18:44:32.663Z,6.38
2022-10-26T18:46:59.522Z,7.75
2022-10-26T18:49:26.963Z,7.95
2022-10-26T18:51:53.911Z,8.40
2022-10-26T18:54:28.287Z,9.43
2022-10-26T18:57:02.313Z,10.10
2022-10-26T18:59:29.083Z,10.27
2022-10-26T19:01:55.947Z,9.32
2022-10-26T19:04:22.853Z,8.98
2022-10-26T19:06:51.849Z,8.35
2022-10-26T19:09:21.045Z,8.57
2022-10-26T19:11:47.996Z,6.60
2022-10-26T19:14:14.898Z,7.65
2022-10-26T19:16:46.781Z,8.80
2022-10-26T19:19:15.087Z,6.80
2022-10-26T19:21:44.566Z,8.27
2022-10-26T19:24:14.461Z,8.15
2022-10-26T19:26:43.738Z,8.43
2022-10-26T19:29:16.765Z,8.60
2022-10-26T19:31:47.283Z,7.90
2022-10-26T19:34:42.509Z,8.25
2022-10-26T19:37:15.017Z,8.00
2022-10-26T19:39:44.110Z,9.50
2022-10-26T19:42:15.756Z,9.60
2022-10-26T19:44:42.550Z,8.77
2022-10-26T19:47:09.459Z,8.07
2022-10-26T19:49:36.178Z,8.60
2022-10-26T19:52:03.199Z,8.88
2022-10-26T19:54:30.052Z,9.40
2022-10-26T19:56:57.389Z,9.25
2022-10-26T19:59:26.862Z,8.23
2022-10-26T20:01:57.811Z,9.20
2022-10-26T20:04:25.000Z,9.23
2022-10-26T20:06:54.227Z,9.27
2022-10-26T20:09:23.484Z,9.57
2022-10-26T20:11:52.812Z,7.78
2022-10-26T20:14:19.729Z,8.68
2022-10-26T20:16:49.017Z,8.23
2022-10-26T20:19:15.762Z,9.45
2022-10-26T20:21:44.867Z,9.38
2022-10-26T20:24:14.144Z,10.75
2022-10-26T20:26:40.925Z,11.05
2022-10-26T20:29:10.448Z,9.85
2022-10-26T20:31:37.161Z,11.00
2022-10-26T20:34:10.910Z,10.35
2022-10-26T20:36:37.747Z,10.45
2022-10-26T20:39:09.695Z,12.18
2022-10-26T20:41:48.568Z,12.02
2022-10-26T20:44:22.869Z,13.02
2022-10-26T20:46:49.991Z,10.50
2022-10-26T20:52:19.933Z,11.95
2022-10-26T20:57:28.659Z,11.88
2022-10-26T21:00:03.881Z,12.13
2022-10-26T21:02:31.090Z,13.10
2022-10-26T21:05:00.396Z,13.07
2022-10-26T21:07:29.580Z,12.85
2022-10-26T21:09:56.434Z,12.88
2022-10-26T21:12:25.883Z,12.23
2022-10-26T21:14:52.563Z,11.75
2022-10-26T21:17:19.296Z,12.55
2022-10-26T21:19:48.303Z,11.75
2022-10-26T21:22:15.818Z,11.25
2022-10-26T21:24:44.703Z,12.55
2022-10-26T21:27:13.605Z,12.98
2022-10-26T21:29:40.376Z,12.13
2022-10-26T21:32:07.062Z,12.38
2022-10-26T21:34:38.447Z,11.57
2022-10-26T21:37:05.255Z,12.05
2022-10-26T21:39:31.980Z,12.27
2022-10-26T21:42:01.024Z,18.02
2022-10-26T21:44:43.066Z,12.35
2022-10-26T21:47:12.798Z,11.57
2022-10-26T21:52:11.642Z,15.13
2022-10-26T21:54:38.346Z,13.55
2022-10-26T21:57:05.118Z,12.80
2022-10-26T21:59:36.322Z,11.85
2022-10-26T22:02:05.644Z,12.77
2022-10-26T22:07:03.614Z,11.07
2022-10-26T22:09:30.688Z,11.48
2022-10-26T22:11:59.554Z,11.93
2022-10-26T22:14:26.409Z,12.40
2022-10-26T22:16:53.102Z,11.65
2022-10-26T22:19:19.863Z,13.00
2022-10-26T22:21:46.549Z,12.48
2022-10-26T22:24:15.517Z,11.60
2022-10-26T22:26:42.165Z,17.45
2022-10-26T22:29:09.364Z,13.88
2022-10-26T22:31:39.344Z,13.02
2022-10-26T22:34:10.350Z,18.23
2022-10-26T22:36:37.186Z,14.77
2022-10-26T22:39:04.317Z,15.77
2022-10-26T22:41:31.000Z,14.52
2022-10-26T22:43:57.661Z,14.18
2022-10-26T22:46:28.041Z,13.23
2022-10-26T22:48:59.662Z,14.10
2022-10-26T22:51:33.511Z,14.55
2022-10-26T22:54:05.756Z,17.23
2022-10-26T22:56:37.238Z,15.20
2022-10-26T22:59:05.282Z,14.23
2022-10-26T23:01:35.856Z,15.45
2022-10-26T23:04:02.981Z,15.30
2022-10-26T23:06:31.303Z,15.43
2022-10-26T23:08:58.311Z,16.42
2022-10-26T23:11:27.506Z,15.13
2022-10-26T23:13:58.492Z,15.77
2022-10-26T23:16:25.940Z,15.20
2022-10-26T23:18:55.553Z,15.60
2022-10-26T23:21:23.646Z,15.73
2022-10-26T23:23:50.441Z,15.45
2022-10-26T23:26:19.488Z,14.98
2022-10-26T23:28:46.512Z,15.30
2022-10-26T23:31:17.025Z,14.27
2022-10-26T23:33:46.156Z,14.77
2022-10-26T23:36:15.249Z,15.18
2022-10-26T23:38:42.007Z,14.52
2022-10-26T23:41:15.933Z,13.45
2022-10-26T23:43:42.692Z,14.05
2022-10-26T23:46:11.821Z,14.45
2022-10-26T23:48:38.687Z,13.70
2022-10-26T23:51:10.372Z,14.00
2022-10-26T23:56:03.623Z,13.68
2022-10-26T23:58:32.546Z,13.38
